New Carlisle, IN

7:28 AM EST on December 26, 2014 (GMT -0500)
South Bend Regional | Change Station
CLOSE
Current Station
Airport
Location: South Bend,
Elevation: 774 ft
Nearby Weather Stations

Elev 774 ft 41.71 °N, 86.32 °W | Updated 34 minutes ago

Clear
Clear
36 °F
Feels Like 29 °F
N
9
Wind Variable Wind from SSW

Today
High -- | Low -- °F
--% Chance of Precip.
Yesterday
High -- | Low -- °F
Precip. -- in
8:11 AM 5:21 PM
Waxing Crescent, 25% visible
Pressure 30.08 in
Visibility 10.0 miles
Clouds Clear
Windchill 29 °F
Dew Point 31 °F
Humidity 82%
Rainfall 0.00 in
Snow Depth Not available.
UV 0 out of 12
Pollen .10 out of 12
Air Quality Not available.
Flu Activity Not available.
METAR KSBN 261154Z 20008KT 10SM CLR 02/M01 A3006 RMK AO2 SLP186 T00221006 10033 20017 56002

More Conditions Fewer Conditions

Pressure 30.08 in
Visibility 10.0 miles
Clouds Clear
Windchill 29 °F
Dew Point 31 °F
Humidity 82%
Rainfall 0.00 in
Snow Depth Not available.
UV 0 out of 12
Pollen .10 out of 12
Air Quality Not available.
Flu Activity Not available.
METAR KSBN 261154Z 20008KT 10SM CLR 02/M01 A3006 RMK AO2 SLP186 T00221006 10033 20017 56002

More Conditions Fewer Conditions

10-Day Weather Forecast

Almanac

Astronomy

Dec. 26, 2014 Rise Set
Actual Time
Civil Twilight
Nautical Twilight
Astronomical Twilight
Moon
Length of Visible Light
Length of Day
Tomorrow will be .
, % of the Moon is Illuminated

Today's Extremes

State Highs State Lows

Community

WunderPhotos

Upload Photos

1,780,585 photos uploaded!

WunderBlogs® & News

Nearby

Air Quality

  Air Quality AQ Index Pollutant
Not available.

Snow Depth

Station Depth Elevation

Earthquake Activity

City Distance Mag. Time & Date
Minimum magnitude displayed is 2.5.

Coastal Water Temperatures

Place Temperature

Nearby Weather Stations